createdAt,value
2024-03-09T00:00:26.346Z,10.08
2024-03-09T00:02:55.239Z,10.05
2024-03-09T00:05:25.652Z,10.02
2024-03-09T00:07:56.557Z,10.00
2024-03-09T00:10:28.096Z,9.97
2024-03-09T00:12:56.662Z,9.95
2024-03-09T00:15:27.192Z,9.92
2024-03-09T00:17:55.599Z,9.92
2024-03-09T00:20:26.368Z,9.90
2024-03-09T00:22:54.394Z,9.89
2024-03-09T00:25:24.736Z,9.89
2024-03-09T00:27:55.848Z,9.88
2024-03-09T00:30:23.566Z,9.87
2024-03-09T00:32:55.315Z,9.85
2024-03-09T00:35:23.643Z,9.82
2024-03-09T00:37:50.529Z,9.79
2024-03-09T00:40:18.660Z,9.76
2024-03-09T00:42:46.763Z,9.74
2024-03-09T00:45:18.030Z,9.73
2024-03-09T00:47:48.308Z,9.73
2024-03-09T00:50:17.127Z,9.72
2024-03-09T00:52:44.928Z,9.73
2024-03-09T00:55:11.835Z,9.73
2024-03-09T00:57:39.296Z,9.73
2024-03-09T01:00:17.101Z,9.73
2024-03-09T01:02:45.554Z,9.70
2024-03-09T01:05:13.049Z,9.69
2024-03-09T01:07:40.788Z,9.69
2024-03-09T01:10:09.090Z,9.69
2024-03-09T01:12:36.860Z,9.69
2024-03-09T01:15:04.987Z,9.70
2024-03-09T01:17:31.984Z,9.70
2024-03-09T01:19:59.133Z,9.71
2024-03-09T01:22:26.275Z,9.69
2024-03-09T01:24:56.354Z,9.68
2024-03-09T01:27:23.247Z,9.69
2024-03-09T01:29:50.091Z,9.68
2024-03-09T01:32:17.067Z,9.68
2024-03-09T01:34:44.236Z,9.67
2024-03-09T01:37:11.840Z,9.66
2024-03-09T01:39:39.716Z,9.67
2024-03-09T01:42:09.812Z,9.68
2024-03-09T01:44:37.053Z,9.67
2024-03-09T01:47:10.490Z,9.66
2024-03-09T01:49:37.897Z,9.66
2024-03-09T01:52:05.898Z,9.67
2024-03-09T01:54:35.932Z,9.67
2024-03-09T01:57:03.192Z,9.68
2024-03-09T01:59:33.372Z,9.69
2024-03-09T02:02:02.952Z,9.67
2024-03-09T02:04:32.075Z,9.66
2024-03-09T02:07:00.133Z,9.64
2024-03-09T02:09:27.136Z,9.63
2024-03-09T02:11:54.700Z,9.60
2024-03-09T02:14:23.257Z,9.58
2024-03-09T02:16:51.508Z,9.55
2024-03-09T02:19:18.519Z,9.55
2024-03-09T02:21:47.457Z,9.55
2024-03-09T02:24:19.934Z,9.54
2024-03-09T02:26:48.899Z,9.52
2024-03-09T02:29:16.243Z,9.51
2024-03-09T02:31:43.249Z,9.52
2024-03-09T02:34:10.099Z,9.51
2024-03-09T02:36:40.157Z,9.51
2024-03-09T02:39:10.978Z,9.51
2024-03-09T02:41:38.391Z,9.48
2024-03-09T02:44:05.721Z,9.49
2024-03-09T02:46:32.953Z,9.48
2024-03-09T02:48:59.794Z,9.49
2024-03-09T02:51:27.943Z,9.50
2024-03-09T02:53:54.990Z,9.52
2024-03-09T02:56:22.027Z,9.53
2024-03-09T02:58:50.006Z,9.52
2024-03-09T03:01:21.614Z,9.51
2024-03-09T03:04:06.872Z,9.50
2024-03-09T03:06:34.120Z,9.48
2024-03-09T03:09:12.577Z,9.49
2024-03-09T03:11:42.632Z,9.50
2024-03-09T03:14:11.126Z,9.51
2024-03-09T03:16:38.934Z,9.52
2024-03-09T03:19:08.183Z,9.53
2024-03-09T03:21:35.644Z,9.52
2024-03-09T03:24:03.637Z,9.50
2024-03-09T03:26:31.612Z,9.48
2024-03-09T03:28:58.898Z,9.47
2024-03-09T03:31:27.119Z,9.45
2024-03-09T03:33:53.984Z,9.45
2024-03-09T03:36:21.718Z,9.46
2024-03-09T03:38:49.331Z,9.44
2024-03-09T03:41:18.408Z,9.45
2024-03-09T03:43:45.867Z,9.43
2024-03-09T03:46:14.509Z,9.43
2024-03-09T03:48:46.527Z,9.46
2024-03-09T03:51:15.002Z,9.48
2024-03-09T03:53:43.302Z,9.50
2024-03-09T03:56:10.761Z,9.50
2024-03-09T03:58:39.039Z,9.50
2024-03-09T04:01:06.790Z,9.48
2024-03-09T04:03:34.057Z,9.47
2024-03-09T04:06:01.417Z,9.47
2024-03-09T04:08:28.753Z,9.47
2024-03-09T04:10:58.814Z,9.45
2024-03-09T04:13:26.455Z,9.46
2024-03-09T04:15:54.298Z,9.48
2024-03-09T04:18:23.345Z,9.48
2024-03-09T04:20:51.297Z,9.50
2024-03-09T04:23:18.736Z,9.53
2024-03-09T04:25:51.871Z,9.52
2024-03-09T04:28:22.784Z,9.52
2024-03-09T04:30:51.110Z,9.53
2024-03-09T04:33:20.621Z,9.52
2024-03-09T04:35:51.053Z,9.50
2024-03-09T04:38:18.359Z,9.50
2024-03-09T04:40:50.891Z,9.49
2024-03-09T04:43:19.407Z,9.49
2024-03-09T04:45:52.523Z,9.51
2024-03-09T04:48:20.337Z,9.52
2024-03-09T04:50:48.835Z,9.55
2024-03-09T04:53:17.945Z,9.57
2024-03-09T04:55:49.866Z,9.58
2024-03-09T04:58:19.226Z,9.58
2024-03-09T05:00:46.965Z,9.57
2024-03-09T05:03:14.516Z,9.55
2024-03-09T05:05:42.038Z,9.56
2024-03-09T05:08:09.853Z,9.57
2024-03-09T05:10:38.556Z,9.58
2024-03-09T05:13:08.076Z,9.61
2024-03-09T05:15:38.911Z,9.63
2024-03-09T05:18:11.265Z,9.64
2024-03-09T05:20:38.851Z,9.66
2024-03-09T05:23:13.412Z,9.68
2024-03-09T05:25:43.270Z,9.70
2024-03-09T05:28:14.874Z,9.72
2024-03-09T05:30:43.528Z,9.77
2024-03-09T05:33:11.035Z,9.82
2024-03-09T05:35:38.340Z,9.86
2024-03-09T05:38:06.599Z,9.89
2024-03-09T05:40:35.617Z,9.92
2024-03-09T05:43:08.081Z,9.96
2024-03-09T05:45:36.816Z,9.98
2024-03-09T05:48:04.144Z,10.01
2024-03-09T05:50:31.731Z,10.02
2024-03-09T05:53:02.887Z,10.05
2024-03-09T05:55:30.585Z,10.09
2024-03-09T05:57:58.574Z,10.11
2024-03-09T06:00:29.524Z,10.13
2024-03-09T06:02:58.325Z,10.14
2024-03-09T06:05:32.624Z,10.18
2024-03-09T06:08:01.043Z,10.20
2024-03-09T06:10:29.420Z,10.21
2024-03-09T06:12:56.448Z,10.20
2024-03-09T06:15:24.496Z,10.19
2024-03-09T06:17:55.770Z,10.18
2024-03-09T06:20:23.054Z,10.19
2024-03-09T06:22:50.107Z,10.19
2024-03-09T06:25:24.982Z,10.21
2024-03-09T06:27:56.768Z,10.23
2024-03-09T06:30:29.299Z,10.26
2024-03-09T06:33:00.174Z,10.30
2024-03-09T06:35:27.676Z,10.32
2024-03-09T06:38:06.720Z,10.34
2024-03-09T06:40:35.851Z,10.35
2024-03-09T06:43:07.035Z,10.36
2024-03-09T06:45:35.211Z,10.35
2024-03-09T06:48:02.355Z,10.35
2024-03-09T06:50:30.946Z,10.34
2024-03-09T06:52:57.875Z,10.35
2024-03-09T06:55:27.037Z,10.36
2024-03-09T06:57:54.923Z,10.36
2024-03-09T07:00:22.736Z,10.37
2024-03-09T07:02:51.299Z,10.35
2024-03-09T07:05:18.912Z,10.38
2024-03-09T07:07:46.202Z,10.40
2024-03-09T07:10:13.523Z,10.40
2024-03-09T07:12:42.330Z,10.42
2024-03-09T07:15:18.083Z,10.45
2024-03-09T07:17:49.967Z,10.48
2024-03-09T07:20:19.007Z,10.50
2024-03-09T07:22:49.844Z,10.53
2024-03-09T07:25:25.266Z,10.56
2024-03-09T07:27:54.107Z,10.60
2024-03-09T07:30:21.201Z,10.64
2024-03-09T07:32:50.837Z,10.66
2024-03-09T07:35:20.396Z,10.65
2024-03-09T07:37:57.004Z,10.65
2024-03-09T07:40:27.394Z,10.64
2024-03-09T07:42:55.235Z,10.65
2024-03-09T07:45:31.611Z,10.66
2024-03-09T07:48:00.909Z,10.67
2024-03-09T07:50:29.544Z,10.68
2024-03-09T07:52:57.866Z,10.70
2024-03-09T07:55:27.156Z,10.69
2024-03-09T07:58:12.882Z,10.69
2024-03-09T08:00:47.035Z,10.70
2024-03-09T08:03:14.576Z,10.70
2024-03-09T08:05:42.878Z,10.69
2024-03-09T08:08:14.274Z,10.69
2024-03-09T08:10:49.521Z,10.68
2024-03-09T08:13:18.807Z,10.68
2024-03-09T08:15:46.875Z,10.70
2024-03-09T08:18:13.833Z,10.74
2024-03-09T08:20:41.070Z,10.76
2024-03-09T08:23:08.432Z,10.80
2024-03-09T08:25:35.683Z,10.84
2024-03-09T08:28:03.083Z,10.87
2024-03-09T08:30:32.322Z,10.88
2024-03-09T08:33:01.937Z,10.89
2024-03-09T08:35:31.141Z,10.91
2024-03-09T08:37:58.236Z,10.94
2024-03-09T08:40:27.368Z,10.96
2024-03-09T08:42:54.577Z,10.99
2024-03-09T08:45:30.742Z,11.01
2024-03-09T08:47:58.385Z,11.04
2024-03-09T08:50:29.086Z,11.06
2024-03-09T08:52:57.030Z,11.08
2024-03-09T08:55:24.432Z,11.10
2024-03-09T08:57:51.497Z,11.10
2024-03-09T09:00:26.615Z,11.12
2024-03-09T09:02:58.559Z,11.13
2024-03-09T09:05:29.165Z,11.15
2024-03-09T09:07:56.989Z,11.18
2024-03-09T09:10:26.938Z,11.22
2024-03-09T09:12:55.792Z,11.24
2024-03-09T09:15:26.119Z,11.25
2024-03-09T09:17:55.040Z,11.28
2024-03-09T09:20:22.409Z,11.33
2024-03-09T09:22:49.896Z,11.37
2024-03-09T09:25:20.738Z,11.37
2024-03-09T09:27:47.550Z,11.38
2024-03-09T09:30:14.485Z,11.39
2024-03-09T09:32:43.353Z,11.39
2024-03-09T09:35:11.319Z,11.38
2024-03-09T09:37:38.400Z,11.39
2024-03-09T09:40:08.775Z,11.39
2024-03-09T09:42:37.082Z,11.41
2024-03-09T09:45:06.482Z,11.45
2024-03-09T09:47:36.633Z,11.51
2024-03-09T09:50:05.010Z,11.57
2024-03-09T09:52:35.185Z,11.60
2024-03-09T09:55:03.651Z,11.62
2024-03-09T09:57:32.740Z,11.78
2024-03-09T09:59:59.858Z,11.88
2024-03-09T10:02:26.908Z,11.88
2024-03-09T10:04:55.568Z,11.86
2024-03-09T10:07:23.208Z,11.86
2024-03-09T10:09:51.010Z,11.87
2024-03-09T10:12:22.781Z,11.88
2024-03-09T10:14:50.782Z,11.89
2024-03-09T10:17:21.038Z,11.91
2024-03-09T10:19:52.209Z,11.96
2024-03-09T10:22:19.402Z,12.04
2024-03-09T10:24:58.057Z,12.52
2024-03-09T10:27:29.123Z,12.78
2024-03-09T10:30:15.222Z,12.87
2024-03-09T10:32:45.418Z,12.94
2024-03-09T10:35:13.413Z,13.00
2024-03-09T10:37:42.221Z,13.02
2024-03-09T10:40:14.367Z,13.00
2024-03-09T10:42:47.603Z,12.94
2024-03-09T10:45:16.820Z,12.88
2024-03-09T10:47:55.750Z,12.82
2024-03-09T10:50:29.965Z,12.80
2024-03-09T10:53:09.704Z,12.82
2024-03-09T10:56:01.087Z,12.88
2024-03-09T10:58:28.836Z,12.98
2024-03-09T11:00:56.216Z,13.07
2024-03-09T11:03:25.395Z,13.15
2024-03-09T11:05:56.485Z,13.23
2024-03-09T11:08:24.844Z,13.29
2024-03-09T11:10:52.830Z,13.33
2024-03-09T11:13:20.478Z,13.36
2024-03-09T11:15:53.691Z,13.40
2024-03-09T11:18:24.093Z,13.43
2024-03-09T11:21:02.112Z,13.46
2024-03-09T11:23:34.582Z,13.46
2024-03-09T11:26:04.324Z,13.45
2024-03-09T11:28:56.958Z,13.45
2024-03-09T11:31:29.665Z,13.45
2024-03-09T11:34:17.719Z,13.43
2024-03-09T11:36:53.159Z,13.33
2024-03-09T11:39:23.513Z,13.27
2024-03-09T11:41:52.070Z,13.23
2024-03-09T11:44:23.841Z,13.20
2024-03-09T11:46:51.735Z,13.18
2024-03-09T11:49:18.613Z,13.18
2024-03-09T11:51:48.703Z,13.18
2024-03-09T11:54:20.318Z,13.17
2024-03-09T11:56:47.560Z,13.14
2024-03-09T11:59:15.653Z,13.10
2024-03-09T12:01:43.047Z,13.05
2024-03-09T12:04:11.549Z,13.01
2024-03-09T12:06:43.258Z,12.98
2024-03-09T12:09:16.661Z,12.93
2024-03-09T12:11:53.463Z,12.86
2024-03-09T12:14:21.617Z,12.80
2024-03-09T12:16:52.655Z,12.77
2024-03-09T12:19:20.289Z,12.73
2024-03-09T12:21:47.990Z,12.73
2024-03-09T12:24:15.349Z,12.73
2024-03-09T12:26:42.855Z,12.70
2024-03-09T12:29:14.169Z,12.63
2024-03-09T12:31:42.199Z,12.57
2024-03-09T12:34:11.987Z,12.52
2024-03-09T12:36:50.470Z,12.47
2024-03-09T12:39:18.068Z,12.45
2024-03-09T12:41:52.532Z,12.42
2024-03-09T12:44:19.761Z,12.42
2024-03-09T12:46:48.466Z,12.42
2024-03-09T12:49:15.458Z,12.42
2024-03-09T12:51:44.015Z,12.42
2024-03-09T12:54:11.503Z,12.45
2024-03-09T12:56:40.595Z,12.46
2024-03-09T12:59:12.359Z,12.46
2024-03-09T13:01:39.808Z,12.46
2024-03-09T13:04:10.344Z,12.46
2024-03-09T13:06:42.764Z,12.44
2024-03-09T13:09:12.219Z,12.42
2024-03-09T13:11:39.638Z,12.42
2024-03-09T13:14:07.536Z,12.43
2024-03-09T13:16:35.078Z,12.47
2024-03-09T13:19:02.312Z,12.49
2024-03-09T13:21:29.173Z,12.55
2024-03-09T13:23:57.438Z,12.60
2024-03-09T13:26:25.121Z,12.69
2024-03-09T13:29:31.396Z,12.76
2024-03-09T13:32:03.382Z,12.83
2024-03-09T13:34:32.407Z,12.91
2024-03-09T13:37:00.484Z,13.02
2024-03-09T13:39:36.579Z,13.11
2024-03-09T13:42:10.507Z,13.20
2024-03-09T13:44:38.193Z,13.31
2024-03-09T13:47:07.052Z,13.41
2024-03-09T13:49:34.572Z,13.46
2024-03-09T13:52:01.575Z,13.49
2024-03-09T13:54:30.513Z,13.55
2024-03-09T13:56:57.271Z,13.62
2024-03-09T13:59:25.248Z,13.64
2024-03-09T14:01:52.347Z,13.66
2024-03-09T14:04:25.157Z,13.70
2024-03-09T14:07:06.602Z,13.73
2024-03-09T14:09:47.193Z,13.77
2024-03-09T14:12:17.139Z,13.79
2024-03-09T14:14:44.148Z,13.81
2024-03-09T14:17:11.025Z,13.83
2024-03-09T14:19:40.296Z,13.84
2024-03-09T14:22:07.535Z,13.83
2024-03-09T14:24:34.369Z,13.76
2024-03-09T14:27:01.209Z,13.76
2024-03-09T14:29:29.507Z,13.74
2024-03-09T14:31:56.744Z,13.68
2024-03-09T14:34:23.688Z,13.61
2024-03-09T14:36:50.975Z,13.56
2024-03-09T14:39:18.779Z,13.51
2024-03-09T14:41:45.844Z,13.49
2024-03-09T14:44:14.397Z,13.46
2024-03-09T14:46:42.047Z,13.43
2024-03-09T14:49:10.923Z,13.42
2024-03-09T14:51:41.026Z,13.42
2024-03-09T14:54:07.818Z,13.40
2024-03-09T14:56:34.663Z,13.37
2024-03-09T14:59:11.945Z,13.33
2024-03-09T15:01:39.005Z,13.27
2024-03-09T15:04:09.660Z,13.28
2024-03-09T15:06:41.429Z,13.41
2024-03-09T15:09:22.366Z,13.43
2024-03-09T15:11:54.302Z,13.41
2024-03-09T15:14:24.590Z,13.43
2024-03-09T15:16:51.798Z,13.47
2024-03-09T15:19:19.836Z,13.53
2024-03-09T15:21:46.692Z,13.63
2024-03-09T15:24:13.505Z,13.71
2024-03-09T15:26:44.745Z,13.76
2024-03-09T15:29:15.720Z,13.82
2024-03-09T15:31:45.562Z,13.85
2024-03-09T15:34:12.542Z,13.86
2024-03-09T15:36:40.845Z,13.87
2024-03-09T15:39:08.898Z,13.89
2024-03-09T15:41:35.894Z,13.88
2024-03-09T15:44:03.380Z,13.87
2024-03-09T15:46:30.905Z,13.85
2024-03-09T15:48:58.500Z,13.83
2024-03-09T15:51:25.299Z,13.82
2024-03-09T15:53:52.702Z,13.79
2024-03-09T15:56:22.716Z,13.77
2024-03-09T15:58:50.209Z,13.73
2024-03-09T16:01:23.358Z,13.73
2024-03-09T16:03:51.274Z,13.74
2024-03-09T16:06:18.299Z,13.73
2024-03-09T16:08:45.188Z,13.74
2024-03-09T16:11:12.115Z,13.74
2024-03-09T16:13:39.266Z,13.70
2024-03-09T16:16:15.188Z,13.68
2024-03-09T16:18:43.072Z,13.64
2024-03-09T16:21:10.445Z,13.59
2024-03-09T16:23:40.132Z,13.54
2024-03-09T16:26:08.066Z,13.47
2024-03-09T16:28:38.041Z,13.40
2024-03-09T16:31:05.828Z,13.37
2024-03-09T16:33:34.375Z,13.33
2024-03-09T16:36:03.486Z,13.30
2024-03-09T16:38:30.869Z,13.24
2024-03-09T16:40:58.002Z,13.18
2024-03-09T16:43:32.318Z,13.13
2024-03-09T16:46:06.967Z,13.09
2024-03-09T16:48:36.624Z,13.07
2024-03-09T16:51:08.783Z,13.06
2024-03-09T16:53:40.617Z,13.03
2024-03-09T16:56:09.527Z,13.00
2024-03-09T16:58:36.598Z,12.93
2024-03-09T17:01:06.101Z,12.89
2024-03-09T17:03:34.181Z,12.85
2024-03-09T17:06:03.985Z,12.82
2024-03-09T17:08:31.361Z,12.79
2024-03-09T17:10:58.901Z,12.76
2024-03-09T17:13:26.269Z,12.73
2024-03-09T17:15:53.237Z,12.70
2024-03-09T17:18:23.224Z,12.66
2024-03-09T17:20:54.067Z,12.63
2024-03-09T17:23:22.620Z,12.60
2024-03-09T17:25:50.657Z,12.56
2024-03-09T17:28:21.786Z,12.48
2024-03-09T17:30:50.121Z,12.42
2024-03-09T17:33:18.007Z,12.38
2024-03-09T17:35:45.428Z,12.32
2024-03-09T17:38:12.497Z,12.23
2024-03-09T17:40:46.302Z,12.14
2024-03-09T17:43:13.267Z,12.04
2024-03-09T17:45:40.293Z,11.97
2024-03-09T17:48:09.330Z,11.92
2024-03-09T17:50:37.459Z,11.83
2024-03-09T17:53:06.688Z,11.74
2024-03-09T17:55:34.251Z,11.71
2024-03-09T17:58:09.838Z,11.69
2024-03-09T18:00:38.691Z,11.66
2024-03-09T18:03:07.537Z,11.61
2024-03-09T18:05:35.930Z,11.58
2024-03-09T18:08:11.795Z,11.52
2024-03-09T18:10:43.829Z,11.48
2024-03-09T18:13:13.686Z,11.43
2024-03-09T18:15:44.409Z,11.39
2024-03-09T18:18:12.540Z,11.37
2024-03-09T18:20:44.519Z,11.35
2024-03-09T18:23:12.418Z,11.30
2024-03-09T18:25:39.885Z,11.28
2024-03-09T18:28:09.868Z,11.26
2024-03-09T18:30:37.342Z,11.20
2024-03-09T18:33:10.151Z,11.17
2024-03-09T18:35:39.057Z,11.12
2024-03-09T18:38:07.500Z,11.09
2024-03-09T18:40:34.682Z,11.06
2024-03-09T18:43:03.645Z,11.02
2024-03-09T18:45:34.368Z,10.95
2024-03-09T18:48:02.488Z,10.92
2024-03-09T18:50:29.676Z,10.89
2024-03-09T18:53:01.307Z,10.89
2024-03-09T18:55:30.958Z,10.88
2024-03-09T18:57:58.778Z,10.87
2024-03-09T19:00:31.799Z,10.84
2024-03-09T19:03:00.592Z,10.80
2024-03-09T19:05:28.615Z,10.78
2024-03-09T19:07:57.276Z,10.77
2024-03-09T19:10:25.071Z,10.76
2024-03-09T19:12:53.028Z,10.76
2024-03-09T19:15:21.105Z,10.78
2024-03-09T19:17:51.163Z,10.78
2024-03-09T19:20:22.318Z,10.76
2024-03-09T19:22:49.570Z,10.74
2024-03-09T19:25:17.392Z,10.75
2024-03-09T19:27:47.710Z,10.76
2024-03-09T19:30:17.288Z,10.78
2024-03-09T19:32:51.747Z,10.81
2024-03-09T19:35:26.467Z,10.83
2024-03-09T19:37:59.142Z,10.84
2024-03-09T19:40:28.190Z,10.85
2024-03-09T19:42:56.308Z,10.85
2024-03-09T19:45:24.570Z,10.85
2024-03-09T19:47:53.035Z,10.84
2024-03-09T19:50:24.244Z,10.82
2024-03-09T19:52:52.637Z,10.82
2024-03-09T19:55:21.075Z,10.81
2024-03-09T19:57:49.328Z,10.80
2024-03-09T20:00:24.925Z,10.79
2024-03-09T20:02:53.617Z,10.74
2024-03-09T20:05:26.490Z,10.71
2024-03-09T20:07:56.816Z,10.66
2024-03-09T20:10:25.636Z,10.62
2024-03-09T20:12:56.041Z,10.60
2024-03-09T20:15:23.057Z,10.59
2024-03-09T20:17:57.430Z,10.59
2024-03-09T20:20:26.191Z,10.60
2024-03-09T20:22:55.730Z,10.59
2024-03-09T20:25:24.722Z,10.60
2024-03-09T20:27:56.487Z,10.60
2024-03-09T20:30:24.203Z,10.60
2024-03-09T20:32:52.947Z,10.59
2024-03-09T20:35:21.221Z,10.57
2024-03-09T20:37:49.480Z,10.56
2024-03-09T20:40:17.486Z,10.54
2024-03-09T20:42:50.438Z,10.52
2024-03-09T20:45:19.009Z,10.53
2024-03-09T20:47:46.895Z,10.54
2024-03-09T20:50:21.657Z,10.52
2024-03-09T20:52:54.292Z,10.50
2024-03-09T20:55:22.357Z,10.48
2024-03-09T20:57:49.286Z,10.47
2024-03-09T21:00:23.740Z,10.47
2024-03-09T21:02:52.075Z,10.47
2024-03-09T21:05:19.874Z,10.48
2024-03-09T21:07:47.387Z,10.49
2024-03-09T21:10:14.956Z,10.48
2024-03-09T21:12:42.874Z,10.47
2024-03-09T21:15:10.891Z,10.48
2024-03-09T21:17:38.637Z,10.50
2024-03-09T21:20:13.270Z,10.52
2024-03-09T21:22:40.676Z,10.54
2024-03-09T21:25:11.921Z,10.56
2024-03-09T21:27:43.672Z,10.58
2024-03-09T21:30:14.517Z,10.58
2024-03-09T21:32:44.457Z,10.60
2024-03-09T21:35:14.880Z,10.58
2024-03-09T21:37:45.153Z,10.56
2024-03-09T21:40:14.451Z,10.55
2024-03-09T21:42:48.997Z,10.54
2024-03-09T21:45:16.076Z,10.53
2024-03-09T21:47:49.916Z,10.54
2024-03-09T21:50:22.835Z,10.54
2024-03-09T21:52:52.076Z,10.53
2024-03-09T21:55:19.917Z,10.52
2024-03-09T21:57:46.787Z,10.53
2024-03-09T22:00:25.033Z,10.51
2024-03-09T22:02:57.385Z,10.48
2024-03-09T22:05:27.316Z,10.47
2024-03-09T22:07:55.230Z,10.46
2024-03-09T22:10:22.502Z,10.43
2024-03-09T22:12:51.929Z,10.42
2024-03-09T22:15:18.982Z,10.41
2024-03-09T22:17:46.988Z,10.39
2024-03-09T22:20:14.431Z,10.40
2024-03-09T22:22:47.881Z,10.42
2024-03-09T22:25:16.501Z,10.43
2024-03-09T22:27:46.846Z,10.43
2024-03-09T22:30:13.931Z,10.42
2024-03-09T22:32:42.516Z,10.42
2024-03-09T22:35:17.578Z,10.40
2024-03-09T22:37:45.575Z,10.35
2024-03-09T22:40:14.905Z,10.33
2024-03-09T22:42:42.393Z,10.30
2024-03-09T22:45:12.728Z,10.29
2024-03-09T22:47:45.373Z,10.32
2024-03-09T22:50:15.130Z,10.32
2024-03-09T22:52:42.646Z,10.33
2024-03-09T22:55:10.265Z,10.35
2024-03-09T22:57:37.159Z,10.39
2024-03-09T23:00:06.131Z,10.42
2024-03-09T23:02:34.666Z,10.43
2024-03-09T23:05:02.132Z,10.44
2024-03-09T23:07:29.681Z,10.46
2024-03-09T23:09:58.301Z,10.46
2024-03-09T23:12:25.328Z,10.48
2024-03-09T23:14:52.220Z,10.50
2024-03-09T23:17:20.680Z,10.51
2024-03-09T23:19:48.258Z,10.53
2024-03-09T23:22:15.140Z,10.56
2024-03-09T23:24:41.953Z,10.59
2024-03-09T23:27:09.523Z,10.63
2024-03-09T23:29:36.350Z,10.69
2024-03-09T23:32:05.815Z,10.73
2024-03-09T23:34:33.072Z,10.76
2024-03-09T23:36:59.880Z,10.78
2024-03-09T23:39:26.962Z,10.78
2024-03-09T23:41:53.926Z,10.79
2024-03-09T23:44:21.096Z,10.80
2024-03-09T23:46:48.147Z,10.81
2024-03-09T23:49:15.908Z,10.84
2024-03-09T23:51:46.032Z,10.85
2024-03-09T23:54:13.371Z,10.88
2024-03-09T23:56:40.990Z,10.91
2024-03-09T23:59:09.110Z,10.93
